Time;durP1;ratioP1;P1;durP2;ratioP2;P2;SDS_P1;SDS_P2;PMS_P1;PMS_P2;Temp;Humidity;BMP_temperature;BMP_pressure;BME280_temperature;BME280_humidity;BME280_pressure;Samples;Min_cycle;Max_cycle;Signal;HPM_P1;HPM_P2
2021/04/14 00:00:21;;;;;;;9.25;5.10;;;;;;;1.13;84.27;99268.23;238425;1200;26144;-78
2021/04/14 00:05:27;;;;;;;5.05;4.10;;;;;;;1.19;84.57;99270.03;238457;1202;23142;-78
2021/04/14 00:10:32;;;;;;;6.25;5.10;;;;;;;1.24;84.67;99271.23;238732;1200;23215;-77
2021/04/14 00:15:42;;;;;;;8.70;6.00;;;;;;;1.29;84.71;99277.47;238464;1200;23118;-77
2021/04/14 00:20:46;;;;;;;7.50;4.70;;;;;;;1.31;84.35;99278.05;238816;1200;23138;-77
2021/04/14 00:25:51;;;;;;;7.40;5.00;;;;;;;1.31;84.25;99270.13;238772;1202;23115;-77
2021/04/14 00:30:54;;;;;;;4.95;4.05;;;;;;;1.27;85.11;99273.43;238698;1200;23214;-78
2021/04/14 00:35:58;;;;;;;4.70;3.67;;;;;;;1.18;84.69;99273.69;238464;1200;23257;-78
2021/04/14 00:41:08;;;;;;;5.03;3.70;;;;;;;1.13;84.45;99267.44;238514;1199;23175;-78
2021/04/14 00:46:11;;;;;;;4.25;3.80;;;;;;;1.11;84.74;99258.94;238996;1200;23118;-78
2021/04/14 00:51:14;;;;;;;6.43;5.03;;;;;;;1.06;85.01;99258.77;238853;1200;23275;-78
2021/04/14 00:56:17;;;;;;;6.50;5.00;;;;;;;1.00;84.62;99268.34;238697;1200;23110;-79
2021/04/14 01:01:20;;;;;;;5.70;4.37;;;;;;;0.97;84.60;99263.50;239376;1202;23093;-77
2021/04/14 01:06:27;;;;;;;9.20;5.90;;;;;;;0.95;85.14;99260.25;238893;1200;23135;-78
2021/04/14 01:11:31;;;;;;;6.10;4.80;;;;;;;0.91;84.79;99253.78;238880;1199;23122;-79
2021/04/14 01:16:34;;;;;;;7.85;6.10;;;;;;;0.88;85.58;99252.38;238780;1200;23122;-79
2021/04/14 01:21:40;;;;;;;6.93;5.63;;;;;;;0.85;85.02;99248.36;239028;1203;23176;-79
2021/04/14 01:26:44;;;;;;;8.70;5.70;;;;;;;0.85;85.82;99248.36;238838;1200;23111;-78
2021/04/14 01:31:46;;;;;;;7.60;5.60;;;;;;;0.86;86.05;99249.16;238886;1199;23122;-78
2021/04/14 01:36:49;;;;;;;6.93;6.10;;;;;;;0.86;85.57;99254.43;238780;1199;23183;-78
2021/04/14 01:41:52;;;;;;;10.40;6.17;;;;;;;0.84;85.66;99241.46;238643;1200;23332;-78
2021/04/14 01:46:54;;;;;;;6.15;5.30;;;;;;;0.85;85.39;99236.98;238560;1200;23084;-77
2021/04/14 01:51:57;;;;;;;6.60;5.25;;;;;;;0.82;85.99;99232.94;238963;1200;23193;-78
2021/04/14 01:57:00;;;;;;;8.17;5.87;;;;;;;0.80;86.15;99232.35;239160;1202;23112;-78
2021/04/14 02:02:04;;;;;;;7.87;5.40;;;;;;;0.81;85.65;99233.98;238898;1199;23140;-78
2021/04/14 02:07:06;;;;;;;8.47;5.90;;;;;;;0.83;86.46;99231.92;238907;1200;23131;-78
2021/04/14 02:12:12;;;;;;;8.33;5.67;;;;;;;0.84;86.00;99230.91;238989;1200;23115;-79
2021/04/14 02:17:16;;;;;;;8.37;5.93;;;;;;;0.84;86.10;99225.63;239200;1199;23119;-79
2021/04/14 02:22:19;;;;;;;6.73;5.17;;;;;;;0.85;86.21;99224.63;239112;1200;25041;-78
2021/04/14 02:27:22;;;;;;;9.30;7.05;;;;;;;0.82;86.27;99217.11;239149;1200;23122;-78
2021/04/14 02:32:25;;;;;;;9.43;7.30;;;;;;;0.79;85.90;99217.54;238616;1200;23289;-77
2021/04/14 02:37:28;;;;;;;8.93;6.50;;;;;;;0.78;85.82;99212.48;238648;1199;23218;-79
2021/04/14 02:42:30;;;;;;;8.43;5.80;;;;;;;0.77;85.81;99218.77;238657;1200;23262;-78
2021/04/14 02:47:33;;;;;;;9.07;6.27;;;;;;;0.73;86.48;99210.49;238953;1200;25948;-78
2021/04/14 02:52:37;;;;;;;7.30;5.20;;;;;;;0.70;85.99;99208.29;239204;1199;23115;-79
2021/04/14 02:57:39;;;;;;;8.35;5.95;;;;;;;0.66;85.90;99205.26;239523;1200;23127;-78
2021/04/14 03:02:42;;;;;;;7.70;5.90;;;;;;;0.64;85.65;99209.95;239207;1199;23118;-79
2021/04/14 03:07:47;;;;;;;6.43;5.13;;;;;;;0.61;85.96;99205.08;239734;1199;23302;-79
2021/04/14 03:12:50;;;;;;;7.00;5.20;;;;;;;0.55;85.90;99194.59;239539;1200;23131;-79
2021/04/14 03:17:54;;;;;;;6.90;4.95;;;;;;;0.56;86.72;99193.55;239460;1200;23096;-79
2021/04/14 03:22:57;;;;;;;6.80;5.43;;;;;;;0.54;86.46;99193.77;239561;1199;23121;-80
2021/04/14 03:28:02;;;;;;;7.75;5.60;;;;;;;0.53;86.68;99189.50;239507;1200;23133;-79
2021/04/14 03:33:06;;;;;;;7.80;5.70;;;;;;;0.53;86.35;99186.87;239503;1199;23121;-80
2021/04/14 03:38:09;;;;;;;9.00;6.15;;;;;;;0.55;86.37;99194.59;240371;1200;23122;-79
2021/04/14 03:43:12;;;;;;;6.90;5.15;;;;;;;0.54;86.81;99195.61;240245;1199;23084;-80
2021/04/14 03:48:15;;;;;;;7.30;5.40;;;;;;;0.49;86.43;99194.41;240335;1199;23138;-79
2021/04/14 03:53:25;;;;;;;6.50;5.20;;;;;;;0.51;86.42;99202.11;240231;1200;23344;-79
2021/04/14 03:58:30;;;;;;;8.10;5.90;;;;;;;0.51;86.87;99204.74;240738;1200;23141;-80
2021/04/14 04:03:33;;;;;;;8.05;5.90;;;;;;;0.53;86.92;99204.53;240351;1199;24766;-79
2021/04/14 04:08:35;;;;;;;8.23;5.83;;;;;;;0.56;87.07;99212.00;240642;1199;23170;-79
2021/04/14 04:13:38;;;;;;;7.93;6.10;;;;;;;0.55;86.35;99208.58;240459;1198;23558;-79
2021/04/14 04:18:41;;;;;;;8.27;5.50;;;;;;;0.60;87.00;99207.93;239861;1199;23124;-80
2021/04/14 04:23:44;;;;;;;10.05;5.95;;;;;;;0.58;87.24;99221.33;239407;1200;23148;-79
2021/04/14 04:28:48;;;;;;;8.20;6.00;;;;;;;0.57;87.15;99224.17;239792;1198;23259;-79
2021/04/14 04:33:50;;;;;;;8.85;6.40;;;;;;;0.53;86.54;99223.78;239328;1200;23084;-79
2021/04/14 04:38:53;;;;;;;7.27;5.27;;;;;;;0.53;86.86;99226.41;239431;1200;23379;-79
2021/04/14 04:43:57;;;;;;;8.20;5.40;;;;;;;0.53;86.64;99239.59;239672;1200;23125;-80
2021/04/14 04:49:00;;;;;;;7.70;6.03;;;;;;;0.56;86.68;99249.75;240777;1199;23125;-78
2021/04/14 04:54:03;;;;;;;7.83;6.43;;;;;;;0.60;86.93;99245.67;240723;1199;23080;-79
2021/04/14 04:59:05;;;;;;;11.47;7.90;;;;;;;0.62;87.00;99258.64;240357;1199;24597;-79
2021/04/14 05:04:11;;;;;;;9.00;7.10;;;;;;;0.65;86.74;99245.02;240272;1199;23109;-79
2021/04/14 05:09:14;;;;;;;12.03;8.97;;;;;;;0.66;87.19;99257.99;239709;1200;23125;-80
2021/04/14 05:14:17;;;;;;;14.20;9.35;;;;;;;0.68;87.19;99260.42;239816;1198;23124;-79
2021/04/14 05:19:19;;;;;;;14.05;9.75;;;;;;;0.69;86.69;99267.31;239712;1199;23122;-80
2021/04/14 05:24:22;;;;;;;15.30;8.90;;;;;;;0.73;86.58;99267.69;240334;1199;23125;-78
2021/04/14 05:29:25;;;;;;;15.07;10.03;;;;;;;0.79;86.80;99257.10;240807;1199;23113;-79
2021/04/14 05:34:27;;;;;;;13.90;8.70;;;;;;;0.84;86.98;99274.95;240780;1199;23103;-79
2021/04/14 05:39:30;;;;;;;12.60;8.50;;;;;;;0.81;86.43;99268.27;240863;1199;23130;-78
2021/04/14 05:44:32;;;;;;;13.75;10.35;;;;;;;0.80;86.96;99274.55;240039;1199;23097;-79
2021/04/14 05:49:35;;;;;;;14.20;10.70;;;;;;;0.78;86.77;99281.05;239628;1199;23126;-79
2021/04/14 05:54:38;;;;;;;14.97;11.10;;;;;;;0.76;87.10;99280.47;240192;1200;23564;-79
2021/04/14 05:59:41;;;;;;;12.60;9.55;;;;;;;0.83;87.25;99253.02;239157;1198;23141;-77
2021/04/14 06:04:43;;;;;;;13.15;10.00;;;;;;;0.96;87.78;99261.88;238994;1200;23141;-76
2021/04/14 06:09:47;;;;;;;15.43;9.93;;;;;;;1.15;87.67;99278.61;238959;1199;26261;-76
2021/04/14 06:14:50;;;;;;;13.10;9.20;;;;;;;1.30;87.14;99272.99;238868;1199;23256;-77
2021/04/14 06:19:52;;;;;;;12.60;9.47;;;;;;;1.42;87.52;99278.40;238982;1199;23125;-76
2021/04/14 06:24:55;;;;;;;10.65;8.50;;;;;;;1.51;87.17;99275.27;238926;1199;23128;-75
2021/04/14 06:29:58;;;;;;;12.10;8.65;;;;;;;1.67;87.02;99273.10;239003;1198;27127;-77
2021/04/14 06:35:01;;;;;;;8.70;6.55;;;;;;;1.77;86.97;99272.60;238712;1199;23208;-76
2021/04/14 06:45:39;;;;;;;22.87;15.20;;;;;;;2.08;87.44;99270.86;238885;1198;23213;-76
2021/04/14 06:50:55;;;;;;;21.50;14.85;;;;;;;2.33;86.88;99266.28;238682;1200;24040;-76
2021/04/14 06:56:02;;;;;;;15.35;12.05;;;;;;;2.47;86.62;99277.51;238848;1200;23617;-76
2021/04/14 07:01:11;;;;;;;11.60;9.20;;;;;;;2.60;86.84;99286.31;239108;1200;23142;-76
2021/04/14 07:06:21;;;;;;;13.03;9.37;;;;;;;2.73;87.25;99284.30;238818;1198;23113;-75
2021/04/14 07:11:34;;;;;;;14.43;10.10;;;;;;;2.91;86.92;99264.92;238804;1200;23117;-76
2021/04/14 07:17:04;;;;;;;15.10;11.00;;;;;;;3.09;86.61;99265.88;238771;1200;23135;-76
2021/04/14 07:22:18;;;;;;;18.50;11.67;;;;;;;3.25;86.48;99262.57;239149;1200;23134;-74
2021/04/14 07:27:47;;;;;;;17.70;12.33;;;;;;;3.29;86.58;99264.76;238928;1199;23471;-76
2021/04/14 07:32:59;;;;;;;20.40;13.70;;;;;;;3.05;85.89;99272.66;239578;1199;23127;-77
2021/04/14 07:38:10;;;;;;;17.10;12.35;;;;;;;3.02;86.58;99268.64;238660;1199;23125;-77
2021/04/14 07:43:30;;;;;;;24.60;16.10;;;;;;;3.10;86.82;99267.49;238645;1200;23176;-77
2021/04/14 07:48:39;;;;;;;16.20;11.40;;;;;;;3.24;86.20;99271.55;238923;1199;23121;-76
2021/04/14 07:53:43;;;;;;;19.23;13.67;;;;;;;3.48;86.85;99268.92;238787;1199;23143;-76
2021/04/14 07:58:47;;;;;;;20.70;14.05;;;;;;;3.71;86.23;99268.14;238754;1200;23162;-76
2021/04/14 08:03:51;;;;;;;16.80;13.10;;;;;;;3.87;85.93;99265.83;238909;1200;23337;-77
2021/04/14 08:08:54;;;;;;;14.53;11.27;;;;;;;4.06;85.76;99267.30;238725;1200;23131;-77
2021/04/14 08:14:12;;;;;;;13.13;10.37;;;;;;;4.15;85.41;99264.28;238839;1199;23117;-79
2021/04/14 08:19:19;;;;;;;12.60;9.60;;;;;;;4.28;85.53;99267.48;238739;1199;23243;-78
2021/04/14 08:24:37;;;;;;;12.30;8.40;;;;;;;4.49;85.02;99265.24;238842;1200;23129;-75
2021/04/14 08:29:40;;;;;;;12.05;8.25;;;;;;;4.35;84.18;99264.70;239023;1199;23141;-77
2021/04/14 08:34:56;;;;;;;12.87;8.60;;;;;;;4.01;84.21;99271.69;238996;1199;23135;-77
2021/04/14 08:40:21;;;;;;;13.25;9.55;;;;;;;3.63;84.03;99279.08;238881;1200;23115;-76
2021/04/14 08:45:31;;;;;;;13.03;9.90;;;;;;;3.69;84.96;99269.40;238923;1199;23356;-77
2021/04/14 08:50:50;;;;;;;9.18;6.88;;;;;;;4.02;84.57;99268.00;238618;1202;23124;-77
2021/04/14 08:55:52;;;;;;;11.60;7.73;;;;;;;4.41;84.81;99255.00;238711;1200;26131;-77
2021/04/14 09:00:58;;;;;;;9.40;7.40;;;;;;;4.80;84.94;99255.20;238803;1198;23118;-77
2021/04/14 09:06:01;;;;;;;8.70;6.00;;;;;;;5.01;83.23;99244.91;238748;1200;23443;-77
2021/04/14 09:11:16;;;;;;;9.40;5.50;;;;;;;4.97;82.68;99248.05;238719;1198;23284;-77
2021/04/14 09:16:35;;;;;;;6.63;3.67;;;;;;;4.74;82.06;99246.34;238835;1199;23137;-77
2021/04/14 09:21:49;;;;;;;6.70;3.70;;;;;;;4.35;80.87;99255.92;239135;1199;23121;-77
2021/04/14 09:26:58;;;;;;;7.43;4.87;;;;;;;4.03;81.14;99254.52;239012;1199;23146;-77
2021/04/14 09:32:14;;;;;;;7.70;5.20;;;;;;;4.12;82.08;99254.95;238938;1199;23108;-77
2021/04/14 09:37:17;;;;;;;11.20;5.70;;;;;;;4.44;82.38;99241.26;238856;1202;26073;-76
2021/04/14 09:42:23;;;;;;;9.10;5.70;;;;;;;4.97;82.86;99228.67;238838;1200;23105;-77
2021/04/14 09:47:28;;;;;;;7.97;5.23;;;;;;;5.27;82.32;99228.37;239017;1200;23260;-77
2021/04/14 09:52:46;;;;;;;6.45;3.35;;;;;;;5.49;81.64;99214.33;240292;1200;23110;-77
2021/04/14 09:57:51;;;;;;;4.60;2.75;;;;;;;5.57;80.58;99221.89;238922;1200;23666;-77
2021/04/14 10:02:57;;;;;;;4.80;3.03;;;;;;;5.51;79.42;99228.16;239077;1200;23125;-78
2021/04/14 10:08:03;;;;;;;5.87;3.27;;;;;;;5.56;79.21;99209.64;239215;1198;23117;-77
2021/04/14 10:13:11;;;;;;;7.27;4.83;;;;;;;5.71;78.01;99201.08;239271;1200;23283;-78
2021/04/14 10:18:30;;;;;;;13.70;8.60;;;;;;;5.79;78.91;99205.16;239632;1199;23136;-76
2021/04/14 10:23:33;;;;;;;11.13;8.47;;;;;;;5.82;78.17;99204.69;239050;1200;26336;-74
2021/04/14 10:28:40;;;;;;;10.47;6.83;;;;;;;5.79;77.85;99205.16;239226;1199;23134;-77
2021/04/14 10:33:44;;;;;;;10.65;6.60;;;;;;;5.74;78.31;99200.58;239296;1199;23125;-79
2021/04/14 10:38:47;;;;;;;11.77;7.23;;;;;;;5.51;78.04;99212.21;239629;1199;23129;-78
2021/04/14 10:43:52;;;;;;;7.95;5.20;;;;;;;4.87;77.16;99205.41;239351;1199;23112;-78
2021/04/14 10:49:08;;;;;;;9.63;6.73;;;;;;;4.37;78.00;99208.77;239221;1200;23159;-77
2021/04/14 10:54:13;;;;;;;8.70;6.50;;;;;;;4.12;78.66;99196.62;239490;1199;23177;-79
2021/04/14 10:59:18;;;;;;;10.50;7.50;;;;;;;4.01;79.69;99202.77;239586;1199;23116;-78
2021/04/14 11:04:39;;;;;;;8.83;7.27;;;;;;;4.02;80.17;99201.73;239128;1202;26127;-78
2021/04/14 11:09:44;;;;;;;11.63;8.10;;;;;;;4.14;80.74;99199.86;239082;1200;23111;-76
2021/04/14 11:14:52;;;;;;;10.60;7.40;;;;;;;4.39;80.67;99196.05;238909;1200;24299;-77
2021/04/14 11:20:01;;;;;;;13.87;8.57;;;;;;;4.74;80.72;99193.25;238824;1202;23138;-77
2021/04/14 11:25:04;;;;;;;10.40;7.20;;;;;;;5.17;79.52;99184.89;238883;1199;23105;-77
2021/04/14 11:30:13;;;;;;;10.00;6.73;;;;;;;5.33;79.12;99191.23;239117;1200;23115;-76
2021/04/14 11:35:16;;;;;;;8.10;6.43;;;;;;;5.38;78.91;99189.45;238793;1200;23117;-77
2021/04/14 11:40:19;;;;;;;7.67;5.30;;;;;;;5.38;77.43;99205.39;238777;1200;23128;-77
2021/04/14 11:45:33;;;;;;;9.93;6.07;;;;;;;5.34;78.04;99198.95;238835;1199;23151;-77
2021/04/14 11:50:37;;;;;;;10.50;6.83;;;;;;;5.45;77.41;99184.77;238736;1200;23145;-78
2021/04/14 11:55:40;;;;;;;10.23;7.50;;;;;;;5.59;77.75;99179.11;238799;1202;23120;-78
2021/04/14 12:00:44;;;;;;;7.85;5.60;;;;;;;5.41;75.72;99190.82;238770;1199;23123;-77
2021/04/14 12:05:53;;;;;;;4.03;3.07;;;;;;;4.57;75.54;99193.20;239123;1199;23260;-76
2021/04/14 12:10:57;;;;;;;4.53;3.40;;;;;;;3.77;76.32;99190.34;239020;1200;23094;-76
2021/04/14 12:15:59;;;;;;;8.45;4.75;;;;;;;3.14;77.20;99191.88;238652;1199;23118;-77
2021/04/14 12:21:03;;;;;;;11.67;6.73;;;;;;;3.07;79.09;99175.30;238675;1198;23137;-76
2021/04/14 12:26:05;;;;;;;11.97;7.80;;;;;;;3.35;79.84;99195.01;238858;1200;23130;-77
2021/04/14 12:31:08;;;;;;;9.93;6.43;;;;;;;3.67;80.71;99184.05;239242;1200;23125;-75
2021/04/14 12:36:27;;;;;;;9.63;6.67;;;;;;;4.11;80.54;99184.39;238582;1200;23111;-76
2021/04/14 12:41:31;;;;;;;11.15;7.10;;;;;;;4.58;80.34;99168.28;238594;1202;23281;-76
2021/04/14 12:46:43;;;;;;;10.85;6.65;;;;;;;5.01;80.05;99167.91;239578;1199;23248;-77
2021/04/14 12:52:05;;;;;;;8.90;6.37;;;;;;;5.49;79.70;99161.97;239414;1199;23174;-80
2021/04/14 12:57:17;;;;;;;8.55;5.65;;;;;;;5.85;78.77;99160.82;239070;1202;23084;-77
2021/04/14 13:02:43;;;;;;;8.80;5.75;;;;;;;6.13;78.38;99160.66;238876;1202;23135;-77
2021/04/14 13:07:53;;;;;;;8.40;5.60;;;;;;;6.37;77.65;99151.61;238778;1202;23122;-78
2021/04/14 13:12:55;;;;;;;7.55;5.60;;;;;;;6.49;77.16;99153.05;238991;1200;24581;-77
2021/04/14 13:18:01;;;;;;;7.60;5.80;;;;;;;6.24;76.60;99150.94;238736;1200;23138;-76
2021/04/14 13:23:14;;;;;;;8.10;5.80;;;;;;;5.84;75.75;99154.70;238944;1199;23459;-77
2021/04/14 13:28:43;;;;;;;8.70;6.30;;;;;;;5.47;76.01;99152.63;238838;1202;25999;-78
2021/04/14 13:33:50;;;;;;;;;;;;;;;5.14;76.57;99156.97;239246;1203;23260;-78
2021/04/14 13:38:57;;;;;;;10.30;5.00;;;;;;;4.87;76.89;99154.14;239205;1200;21676;-78
2021/04/14 13:44:25;;;;;;;9.13;4.87;;;;;;;4.92;77.33;99141.75;239664;1198;23170;-78
2021/04/14 13:49:45;;;;;;;10.40;6.00;;;;;;;5.06;77.37;99141.44;239917;1199;23127;-79
2021/04/14 13:54:50;;;;;;;11.43;6.27;;;;;;;4.96;77.45;99153.50;239056;1200;23118;-78
2021/04/14 13:59:59;;;;;;;5.87;4.23;;;;;;;4.49;76.59;99145.03;238901;1199;23132;-76
2021/04/14 14:05:29;;;;;;;7.90;4.40;;;;;;;3.78;76.92;99151.42;239375;1199;23121;-75
2021/04/14 14:10:37;;;;;;;12.83;6.33;;;;;;;3.39;78.22;99153.78;238886;1200;23260;-75
2021/04/14 14:16:13;;;;;;;7.70;6.10;;;;;;;3.30;78.96;99157.81;238756;1200;23112;-76
2021/04/14 14:21:16;;;;;;;14.23;7.80;;;;;;;3.22;80.06;99162.42;239289;1199;26019;-76
2021/04/14 14:26:32;;;;;;;8.35;5.50;;;;;;;3.25;80.02;99161.16;238699;1198;23120;-76
2021/04/14 14:31:35;;;;;;;12.40;7.20;;;;;;;3.24;80.70;99149.74;238572;1200;23106;-75
2021/04/14 14:36:49;;;;;;;9.27;6.77;;;;;;;3.31;81.11;99152.28;238640;1200;23098;-75
2021/04/14 14:42:03;;;;;;;11.93;6.47;;;;;;;3.36;81.26;99157.70;238815;1200;23120;-76
2021/04/14 14:47:07;;;;;;;10.23;5.00;;;;;;;3.40;81.26;99158.02;238794;1200;23097;-75
2021/04/14 14:52:10;;;;;;;11.30;6.80;;;;;;;3.40;81.00;99155.38;238721;1200;23459;-76
2021/04/14 14:57:24;;;;;;;9.17;4.93;;;;;;;3.38;81.31;99162.76;238671;1200;23106;-75
2021/04/14 15:02:34;;;;;;;8.60;5.93;;;;;;;3.40;80.67;99158.02;238899;1200;23096;-75
2021/04/14 15:07:39;;;;;;;8.25;5.70;;;;;;;3.44;80.73;99148.58;238758;1200;23135;-76
2021/04/14 15:12:41;;;;;;;10.80;8.30;;;;;;;3.56;80.61;99153.88;238638;1200;24280;-76
2021/04/14 15:17:44;;;;;;;15.50;8.10;;;;;;;3.65;80.87;99152.49;238830;1202;23115;-75
2021/04/14 15:22:52;;;;;;;8.20;6.17;;;;;;;3.72;80.80;99154.99;239207;1199;23131;-77
2021/04/14 15:27:57;;;;;;;10.00;6.65;;;;;;;3.67;80.15;99160.20;239003;1198;23166;-76
2021/04/14 15:33:00;;;;;;;7.30;4.23;;;;;;;3.55;79.68;99144.31;238862;1200;23716;-77
2021/04/14 15:38:07;;;;;;;7.23;5.00;;;;;;;3.49;80.06;99151.34;238942;1199;23112;-76
2021/04/14 15:43:10;;;;;;;8.20;4.20;;;;;;;3.50;78.99;99157.44;239048;1199;23117;-76
2021/04/14 15:48:14;;;;;;;5.50;4.00;;;;;;;3.46;79.00;99158.97;238767;1200;23121;-78
2021/04/14 15:53:16;;;;;;;7.50;5.70;;;;;;;3.43;79.62;99160.23;238559;1199;23112;-77
2021/04/14 15:58:20;;;;;;;8.45;5.05;;;;;;;3.41;79.24;99162.30;238912;1202;23128;-76
2021/04/14 16:03:23;;;;;;;7.07;5.33;;;;;;;3.40;79.52;99158.02;239139;1201;23246;-77
2021/04/14 16:08:29;;;;;;;8.43;5.40;;;;;;;3.43;80.20;99168.18;238712;1199;23115;-76
2021/04/14 16:13:32;;;;;;;10.90;7.47;;;;;;;3.48;79.83;99160.32;239136;1199;23129;-77
2021/04/14 16:18:35;;;;;;;9.60;6.97;;;;;;;3.59;80.03;99167.45;239142;1202;23170;-77
2021/04/14 16:23:39;;;;;;;11.63;6.33;;;;;;;3.68;80.21;99159.97;238831;1198;23102;-77
2021/04/14 16:28:45;;;;;;;10.50;6.83;;;;;;;3.73;80.08;99162.70;238848;1200;23172;-77
2021/04/14 16:33:51;;;;;;;8.40;6.23;;;;;;;3.77;79.78;99161.20;238888;1202;23142;-77
2021/04/14 16:38:55;;;;;;;11.10;6.10;;;;;;;3.75;79.61;99162.50;239728;1200;23115;-77
2021/04/14 16:44:01;;;;;;;8.60;5.90;;;;;;;3.73;79.77;99159.26;238987;1199;25981;-76
2021/04/14 16:49:05;;;;;;;10.95;6.75;;;;;;;3.72;79.72;99154.99;238912;1200;23118;-77
2021/04/14 16:54:09;;;;;;;8.37;5.83;;;;;;;3.68;79.30;99153.84;239297;1199;23117;-77
2021/04/14 16:59:12;;;;;;;8.57;6.33;;;;;;;3.63;79.27;99157.20;238952;1200;23101;-77
2021/04/14 17:04:14;;;;;;;10.20;6.60;;;;;;;3.50;79.45;99152.97;239105;1199;23116;-78
2021/04/14 17:09:17;;;;;;;10.47;7.33;;;;;;;3.42;79.45;99161.27;239412;1200;23211;-77
2021/04/14 17:14:20;;;;;;;10.80;8.20;;;;;;;3.38;79.73;99173.36;239171;1199;23141;-77
2021/04/14 17:19:23;;;;;;;8.00;6.40;;;;;;;3.31;79.63;99173.47;238924;1200;23149;-76
2021/04/14 17:24:27;;;;;;;10.30;6.45;;;;;;;3.22;79.92;99174.86;239013;1200;23114;-76
2021/04/14 17:29:31;;;;;;;10.05;6.70;;;;;;;3.14;80.54;99175.20;239221;1200;23167;-77
2021/04/14 17:34:34;;;;;;;8.63;6.00;;;;;;;3.05;80.17;99180.01;238985;1200;23339;-77
2021/04/14 17:39:36;;;;;;;9.67;5.87;;;;;;;2.93;80.65;99177.36;238817;1198;23259;-76
2021/04/14 17:44:40;;;;;;;7.30;5.47;;;;;;;2.84;80.71;99182.19;239031;1200;23110;-76
2021/04/14 17:49:45;;;;;;;10.30;6.40;;;;;;;2.80;80.62;99183.67;238933;1200;23138;-76
2021/04/14 17:54:49;;;;;;;10.30;6.80;;;;;;;2.79;80.62;99187.34;238956;1202;26230;-77
2021/04/14 17:59:57;;;;;;;13.17;7.27;;;;;;;2.77;81.22;99189.42;238695;1200;23114;-76
2021/04/14 18:05:00;;;;;;;14.90;8.55;;;;;;;2.75;80.68;99194.12;238880;1202;23134;-77
2021/04/14 18:10:05;;;;;;;12.50;8.35;;;;;;;2.77;81.37;99192.07;238954;1202;23125;-77
2021/04/14 18:15:08;;;;;;;11.50;6.60;;;;;;;2.74;81.26;99198.61;238979;1200;23152;-76
2021/04/14 18:20:14;;;;;;;14.95;8.30;;;;;;;2.75;80.72;99202.05;239114;1199;23118;-78
2021/04/14 18:25:19;;;;;;;15.20;8.95;;;;;;;2.74;81.36;99200.44;238963;1199;23137;-77
2021/04/14 18:30:26;;;;;;;15.90;9.05;;;;;;;2.75;81.54;99196.77;239088;1198;23109;-77
2021/04/14 18:35:28;;;;;;;15.20;9.27;;;;;;;2.76;81.26;99201.03;239104;1199;23109;-76
2021/04/14 18:40:31;;;;;;;17.07;10.37;;;;;;;2.74;81.83;99195.97;238919;1199;23169;-76
2021/04/14 18:45:39;;;;;;;16.85;10.10;;;;;;;2.72;81.32;99200.66;239113;1200;23131;-76
2021/04/14 18:50:43;;;;;;;18.47;12.27;;;;;;;2.74;82.03;99216.31;239021;1199;23273;-76
2021/04/14 18:55:47;;;;;;;17.03;10.30;;;;;;;2.72;82.18;99216.53;239251;1198;23084;-77
2021/04/14 19:00:50;;;;;;;14.63;10.03;;;;;;;2.73;82.46;99227.95;238960;1198;23141;-77
2021/04/14 19:05:53;;;;;;;15.07;10.63;;;;;;;2.71;81.49;99225.53;238899;1199;23311;-77
2021/04/14 19:10:56;;;;;;;15.67;10.33;;;;;;;2.73;82.32;99220.80;238995;1201;23137;-76
2021/04/14 19:15:59;;;;;;;15.80;9.20;;;;;;;2.74;82.35;99208.38;238806;1202;23166;-76
2021/04/14 19:21:02;;;;;;;22.23;10.67;;;;;;;2.72;82.22;99218.39;238703;1202;23114;-76
2021/04/14 19:26:05;;;;;;;16.13;10.93;;;;;;;2.68;82.13;99206.64;238749;1199;23563;-76
2021/04/14 19:31:08;;;;;;;18.80;10.70;;;;;;;2.65;82.13;99204.45;238691;1202;23111;-76
2021/04/14 19:36:11;;;;;;;20.47;10.00;;;;;;;2.62;82.45;99215.49;238849;1200;23105;-77
2021/04/14 19:41:15;;;;;;;21.03;12.97;;;;;;;2.64;82.20;99208.13;239228;1200;23244;-76
2021/04/14 19:46:19;;;;;;;16.83;8.67;;;;;;;2.63;82.67;99212.62;239048;1200;23413;-76
2021/04/14 19:51:24;;;;;;;14.57;9.00;;;;;;;2.60;82.78;99212.25;239036;1200;23247;-77
2021/04/14 19:56:27;;;;;;;18.90;10.20;;;;;;;2.59;82.70;99226.50;239122;1198;23127;-77
2021/04/14 20:01:33;;;;;;;20.83;11.40;;;;;;;2.56;82.93;99217.16;239106;1200;23121;-76
2021/04/14 20:06:37;;;;;;;18.93;11.30;;;;;;;2.55;82.26;99218.22;238946;1202;23122;-76
2021/04/14 20:11:39;;;;;;;18.03;9.67;;;;;;;2.60;82.56;99220.18;238890;1202;23117;-76
2021/04/14 20:16:42;;;;;;;16.40;11.00;;;;;;;2.62;82.32;99216.28;238922;1199;23163;-76
2021/04/14 20:21:45;;;;;;;16.00;10.77;;;;;;;2.66;82.83;99219.27;239004;1199;23128;-76
2021/04/14 20:26:48;;;;;;;18.67;11.87;;;;;;;2.69;83.46;99210.91;238923;1200;23169;-77
2021/04/14 20:31:51;;;;;;;18.87;11.40;;;;;;;2.72;82.69;99218.39;238948;1197;23134;-76
2021/04/14 20:36:54;;;;;;;20.47;12.63;;;;;;;2.71;82.97;99219.41;238882;1200;23157;-76
2021/04/14 20:41:57;;;;;;;21.65;13.30;;;;;;;2.72;82.98;99215.74;238755;1200;23373;-76
2021/04/14 20:46:59;;;;;;;27.27;16.40;;;;;;;2.67;82.70;99213.78;238885;1197;23137;-77
2021/04/14 20:52:02;;;;;;;32.20;18.67;;;;;;;2.66;82.56;99213.98;238850;1200;23173;-77
2021/04/14 20:57:05;;;;;;;32.80;19.80;;;;;;;2.67;82.74;99207.66;238848;1199;23115;-76
2021/04/14 21:02:08;;;;;;;31.47;19.80;;;;;;;2.68;83.06;99206.64;239325;1199;23128;-77
2021/04/14 21:07:13;;;;;;;33.93;19.07;;;;;;;2.69;83.41;99202.97;239237;1196;23112;-77
2021/04/14 21:12:16;;;;;;;27.57;17.70;;;;;;;2.69;83.19;99200.33;239609;1195;22705;-76
2021/04/14 21:17:19;;;;;;;25.73;17.60;;;;;;;2.66;83.40;99192.81;239628;1196;23139;-77
2021/04/14 21:22:23;;;;;;;26.95;18.30;;;;;;;2.66;82.84;99193.64;239529;1196;23112;-78
2021/04/14 21:27:25;;;;;;;28.40;17.30;;;;;;;2.64;83.11;99197.54;239206;1199;23106;-75
2021/04/14 21:32:28;;;;;;;22.80;13.87;;;;;;;2.63;83.12;99187.98;239382;1196;23106;-77
2021/04/14 21:37:30;;;;;;;20.65;14.20;;;;;;;2.59;83.01;99189.47;239411;1196;23117;-77
2021/04/14 21:42:33;;;;;;;19.40;12.47;;;;;;;2.56;83.86;99182.78;239498;1196;23125;-76
2021/04/14 21:47:38;;;;;;;14.80;9.07;;;;;;;2.52;83.08;99179.80;239252;1196;23279;-76
2021/04/14 21:52:41;;;;;;;17.93;11.77;;;;;;;2.50;83.17;99171.27;239655;1196;23135;-76
2021/04/14 21:57:44;;;;;;;16.50;10.15;;;;;;;2.48;83.99;99177.84;239652;1196;23164;-77
2021/04/14 22:02:47;;;;;;;13.65;9.30;;;;;;;2.44;83.25;99168.74;239564;1196;23101;-77
2021/04/14 22:07:50;;;;;;;18.67;10.40;;;;;;;2.42;83.31;99173.44;239551;1194;23344;-76
2021/04/14 22:12:54;;;;;;;17.03;8.93;;;;;;;2.42;83.48;99173.44;239814;1196;23128;-76
2021/04/14 22:17:58;;;;;;;10.55;7.45;;;;;;;2.37;83.80;99164.34;239734;1196;23240;-77
2021/04/14 22:23:02;;;;;;;8.50;6.75;;;;;;;2.34;83.99;99175.37;239700;1199;26268;-77
2021/04/14 22:28:07;;;;;;;8.15;6.05;;;;;;;2.28;83.56;99170.16;239191;1196;23122;-76
2021/04/14 22:33:14;;;;;;;8.85;6.45;;;;;;;2.20;83.80;99177.38;239370;1196;23163;-76
2021/04/14 22:38:20;;;;;;;5.83;5.03;;;;;;;2.16;83.94;99173.56;239607;1196;23111;-77
2021/04/14 22:43:24;;;;;;;5.97;3.93;;;;;;;2.13;83.77;99173.22;239330;1196;23086;-77
2021/04/14 22:48:26;;;;;;;4.77;3.70;;;;;;;2.07;83.47;99166.17;239711;1196;23285;-77
2021/04/14 22:53:30;;;;;;;4.30;3.00;;;;;;;2.03;83.40;99171.91;239317;1199;23115;-77
2021/04/14 22:58:33;;;;;;;5.40;3.80;;;;;;;2.01;83.86;99162.58;239705;1196;23176;-76
2021/04/14 23:03:37;;;;;;;5.95;3.20;;;;;;;1.98;83.25;99170.95;239708;1199;23120;-77
2021/04/14 23:08:43;;;;;;;7.45;5.20;;;;;;;1.97;83.88;99164.05;239358;1196;23111;-77
2021/04/14 23:13:48;;;;;;;7.17;5.30;;;;;;;1.94;83.51;99161.86;239263;1199;23098;-77
2021/04/14 23:18:51;;;;;;;4.40;3.87;;;;;;;1.94;83.41;99160.02;239781;1196;23177;-76
2021/04/14 23:23:54;;;;;;;4.35;3.95;;;;;;;1.96;84.15;99163.25;239931;1197;23133;-77
2021/04/14 23:28:57;;;;;;;3.93;3.53;;;;;;;1.96;83.54;99155.33;239585;1196;23115;-77
2021/04/14 23:34:00;;;;;;;5.57;3.93;;;;;;;1.90;83.55;99163.33;239527;1199;26268;-76
2021/04/14 23:39:05;;;;;;;4.20;3.60;;;;;;;1.84;83.49;99151.81;239542;1196;23114;-77
2021/04/14 23:44:09;;;;;;;4.40;4.00;;;;;;;1.83;83.56;99155.48;239643;1199;23118;-77
2021/04/14 23:49:13;;;;;;;5.10;3.90;;;;;;;1.83;82.99;99153.66;239858;1196;23331;-78